Bay Port, Michigan
Current Conditions -  °F | °C
As of 9:39 AM on Saturday 25 Oct 2014 (Local Time) from KBAX Reporting Station
Haze Haze  
Wind Chill: 52°   Ceiling: 1000
Heat Index: 52°   Visibility: 5mi
Dew Point: 50°   Wind: 12mph
Humidity: 95%   Direction: 260°W
Pressure: 29.75"   Gusts: 18mph
Location:  43.85°N, 83.37°W
Report Text: KBAX 251339Z AUTO 26010G16KT 5SM BR OVC010 11/10 A2975 RMK AO2 T01100102
Loading
Personal Weather Stations






























Interactive Weather Map
Tropical Storm Tracking
New forecast layout! Learn more

10-Day Weather Forecast

Advertisements
Track Severe Weather on mobile